sensor_id;sensor_type;location;lat;lon;timestamp;pressure;altitude;pressure_sealevel;temperature;humidity
73624;BME280;61921;53.226;-1.296;2022-08-19T00:00:40;99989.60;;;19.68;81.92
73624;BME280;61921;53.226;-1.296;2022-08-19T00:03:05;99991.10;;;19.76;81.48
73624;BME280;61921;53.226;-1.296;2022-08-19T00:05:30;99991.73;;;19.78;81.57
73624;BME280;61921;53.226;-1.296;2022-08-19T00:07:55;99986.88;;;19.78;82.01
73624;BME280;61921;53.226;-1.296;2022-08-19T00:10:21;99994.45;;;19.89;81.47
73624;BME280;61921;53.226;-1.296;2022-08-19T00:12:45;99994.02;;;19.89;81.39
73624;BME280;61921;53.226;-1.296;2022-08-19T00:15:13;99993.43;;;19.93;81.07
73624;BME280;61921;53.226;-1.296;2022-08-19T00:17:35;99991.61;;;20.07;80.79
73624;BME280;61921;53.226;-1.296;2022-08-19T00:20:01;99990.30;;;20.25;79.98
73624;BME280;61921;53.226;-1.296;2022-08-19T00:22:26;99990.62;;;20.43;79.55
73624;BME280;61921;53.226;-1.296;2022-08-19T00:24:51;99995.54;;;20.55;78.74
73624;BME280;61921;53.226;-1.296;2022-08-19T00:27:16;99998.37;;;20.61;78.47
73624;BME280;61921;53.226;-1.296;2022-08-19T00:29:41;99997.51;;;20.57;78.46
73624;BME280;61921;53.226;-1.296;2022-08-19T00:32:06;99999.62;;;20.68;77.59
73624;BME280;61921;53.226;-1.296;2022-08-19T00:34:31;99995.73;;;20.61;78.13
73624;BME280;61921;53.226;-1.296;2022-08-19T00:36:57;99995.23;;;20.66;77.81
73624;BME280;61921;53.226;-1.296;2022-08-19T00:39:22;99992.90;;;20.76;77.27
73624;BME280;61921;53.226;-1.296;2022-08-19T00:41:48;99992.89;;;20.72;77.24
73624;BME280;61921;53.226;-1.296;2022-08-19T00:44:15;99995.39;;;20.78;77.46
73624;BME280;61921;53.226;-1.296;2022-08-19T00:46:39;99998.01;;;20.82;77.08
73624;BME280;61921;53.226;-1.296;2022-08-19T00:49:09;99993.21;;;20.86;76.71
73624;BME280;61921;53.226;-1.296;2022-08-19T00:51:29;99989.78;;;20.85;76.84
73624;BME280;61921;53.226;-1.296;2022-08-19T00:53:53;99990.73;;;20.66;77.16
73624;BME280;61921;53.226;-1.296;2022-08-19T00:56:17;99990.72;;;20.64;77.21
73624;BME280;61921;53.226;-1.296;2022-08-19T00:58:43;99991.27;;;20.67;76.62
73624;BME280;61921;53.226;-1.296;2022-08-19T01:01:08;99991.80;;;20.73;76.66
73624;BME280;61921;53.226;-1.296;2022-08-19T01:03:33;99987.91;;;20.73;76.58
73624;BME280;61921;53.226;-1.296;2022-08-19T01:05:58;99990.76;;;20.88;76.29
73624;BME280;61921;53.226;-1.296;2022-08-19T01:08:23;99994.99;;;20.04;79.87
73624;BME280;61921;53.226;-1.296;2022-08-19T01:10:52;99999.96;;;19.69;81.46
73624;BME280;61921;53.226;-1.296;2022-08-19T01:13:14;100002.04;;;20.01;80.40
73624;BME280;61921;53.226;-1.296;2022-08-19T01:15:42;99999.34;;;19.98;80.20
73624;BME280;61921;53.226;-1.296;2022-08-19T01:18:06;100004.57;;;19.91;80.71
73624;BME280;61921;53.226;-1.296;2022-08-19T01:20:29;100010.68;;;19.75;81.46
73624;BME280;61921;53.226;-1.296;2022-08-19T01:22:56;100029.51;;;19.33;80.13
73624;BME280;61921;53.226;-1.296;2022-08-19T01:25:22;100041.00;;;18.90;80.44
73624;BME280;61921;53.226;-1.296;2022-08-19T01:27:45;100049.77;;;18.71;81.20
73624;BME280;61921;53.226;-1.296;2022-08-19T01:30:13;100048.47;;;18.65;81.47
73624;BME280;61921;53.226;-1.296;2022-08-19T01:32:35;100046.01;;;18.49;82.81
73624;BME280;61921;53.226;-1.296;2022-08-19T01:35:00;100052.56;;;18.37;82.74
73624;BME280;61921;53.226;-1.296;2022-08-19T01:37:25;100054.25;;;18.12;82.76
73624;BME280;61921;53.226;-1.296;2022-08-19T01:39:50;100056.54;;;17.98;82.91
73624;BME280;61921;53.226;-1.296;2022-08-19T01:42:16;100058.65;;;18.35;82.49
73624;BME280;61921;53.226;-1.296;2022-08-19T01:44:41;100054.62;;;18.51;81.18
73624;BME280;61921;53.226;-1.296;2022-08-19T01:47:07;100061.59;;;18.66;79.03
73624;BME280;61921;53.226;-1.296;2022-08-19T01:49:31;100066.86;;;18.69;78.56
73624;BME280;61921;53.226;-1.296;2022-08-19T01:51:58;100069.48;;;18.62;79.29
73624;BME280;61921;53.226;-1.296;2022-08-19T01:54:23;100065.44;;;18.67;76.75
73624;BME280;61921;53.226;-1.296;2022-08-19T01:56:47;100063.39;;;18.65;76.03
73624;BME280;61921;53.226;-1.296;2022-08-19T01:59:17;100064.83;;;18.60;75.13
73624;BME280;61921;53.226;-1.296;2022-08-19T02:01:38;100071.31;;;18.63;74.76
73624;BME280;61921;53.226;-1.296;2022-08-19T02:04:03;100077.66;;;18.87;76.09
73624;BME280;61921;53.226;-1.296;2022-08-19T02:06:28;100080.76;;;18.86;75.11
73624;BME280;61921;53.226;-1.296;2022-08-19T02:08:54;100079.04;;;18.75;75.19
73624;BME280;61921;53.226;-1.296;2022-08-19T02:11:20;100074.53;;;18.87;75.41
73624;BME280;61921;53.226;-1.296;2022-08-19T02:13:44;100077.57;;;18.72;73.18
73624;BME280;61921;53.226;-1.296;2022-08-19T02:16:10;100081.98;;;18.85;75.28
73624;BME280;61921;53.226;-1.296;2022-08-19T02:18:34;100084.71;;;18.88;74.02
73624;BME280;61921;53.226;-1.296;2022-08-19T02:21:00;100089.11;;;18.78;73.88
73624;BME280;61921;53.226;-1.296;2022-08-19T02:23:25;100097.00;;;18.54;74.77
73624;BME280;61921;53.226;-1.296;2022-08-19T02:25:51;100098.46;;;18.53;75.66
73624;BME280;61921;53.226;-1.296;2022-08-19T02:28:16;100090.26;;;18.64;76.61
73624;BME280;61921;53.226;-1.296;2022-08-19T02:30:41;100087.54;;;18.72;75.99
73624;BME280;61921;53.226;-1.296;2022-08-19T02:33:06;100086.91;;;18.80;75.66
73624;BME280;61921;53.226;-1.296;2022-08-19T02:35:31;100092.88;;;18.89;75.44
73624;BME280;61921;53.226;-1.296;2022-08-19T02:37:57;100092.13;;;18.90;74.57
73624;BME280;61921;53.226;-1.296;2022-08-19T02:40:22;100098.09;;;18.89;74.59
73624;BME280;61921;53.226;-1.296;2022-08-19T02:42:47;100102.79;;;18.43;75.11
73624;BME280;61921;53.226;-1.296;2022-08-19T02:45:13;100097.99;;;18.59;75.21
73624;BME280;61921;53.226;-1.296;2022-08-19T02:47:38;100103.42;;;17.87;75.30
73624;BME280;61921;53.226;-1.296;2022-08-19T02:50:04;100103.59;;;17.71;76.22
73624;BME280;61921;53.226;-1.296;2022-08-19T02:52:28;100107.49;;;17.26;76.44
73624;BME280;61921;53.226;-1.296;2022-08-19T02:54:53;100112.33;;;17.21;78.31
73624;BME280;61921;53.226;-1.296;2022-08-19T02:57:19;100117.54;;;17.36;77.47
73624;BME280;61921;53.226;-1.296;2022-08-19T02:59:44;100118.41;;;17.56;77.38
73624;BME280;61921;53.226;-1.296;2022-08-19T03:02:10;100122.50;;;17.58;76.29
73624;BME280;61921;53.226;-1.296;2022-08-19T03:04:34;100125.09;;;17.66;77.11
73624;BME280;61921;53.226;-1.296;2022-08-19T03:06:59;100123.95;;;17.74;76.16
73624;BME280;61921;53.226;-1.296;2022-08-19T03:09:25;100123.99;;;17.83;76.87
73624;BME280;61921;53.226;-1.296;2022-08-19T03:11:50;100127.13;;;17.99;76.11
73624;BME280;61921;53.226;-1.296;2022-08-19T03:14:16;100126.49;;;17.96;74.80
73624;BME280;61921;53.226;-1.296;2022-08-19T03:16:43;100126.26;;;17.85;76.55
73624;BME280;61921;53.226;-1.296;2022-08-19T03:19:07;100123.84;;;17.88;76.15
73624;BME280;61921;53.226;-1.296;2022-08-19T03:21:33;100125.25;;;17.80;75.71
73624;BME280;61921;53.226;-1.296;2022-08-19T03:23:59;100124.94;;;17.77;76.26
73624;BME280;61921;53.226;-1.296;2022-08-19T03:26:22;100129.09;;;17.62;77.00
73624;BME280;61921;53.226;-1.296;2022-08-19T03:28:48;100126.86;;;17.79;75.59
73624;BME280;61921;53.226;-1.296;2022-08-19T03:31:13;100128.49;;;17.46;76.69
73624;BME280;61921;53.226;-1.296;2022-08-19T03:33:38;100131.20;;;17.24;76.64
73624;BME280;61921;53.226;-1.296;2022-08-19T03:36:06;100129.84;;;17.12;78.34
73624;BME280;61921;53.226;-1.296;2022-08-19T03:38:29;100134.39;;;17.32;77.03
73624;BME280;61921;53.226;-1.296;2022-08-19T03:40:54;100138.46;;;17.50;77.40
73624;BME280;61921;53.226;-1.296;2022-08-19T03:43:19;100138.46;;;17.10;75.71
73624;BME280;61921;53.226;-1.296;2022-08-19T03:45:44;100138.00;;;17.24;76.67
73624;BME280;61921;53.226;-1.296;2022-08-19T03:48:10;100139.65;;;17.15;78.43
73624;BME280;61921;53.226;-1.296;2022-08-19T03:50:39;100139.19;;;17.38;78.08
73624;BME280;61921;53.226;-1.296;2022-08-19T03:53:00;100139.83;;;17.41;78.27
73624;BME280;61921;53.226;-1.296;2022-08-19T03:55:25;100137.00;;;17.44;78.10
73624;BME280;61921;53.226;-1.296;2022-08-19T03:57:50;100137.10;;;17.61;78.05
73624;BME280;61921;53.226;-1.296;2022-08-19T04:00:16;100139.18;;;17.68;77.69
73624;BME280;61921;53.226;-1.296;2022-08-19T04:02:41;100141.91;;;17.66;76.89
73624;BME280;61921;53.226;-1.296;2022-08-19T04:05:07;100148.80;;;17.57;77.58
73624;BME280;61921;53.226;-1.296;2022-08-19T04:07:31;100150.43;;;17.43;77.89
73624;BME280;61921;53.226;-1.296;2022-08-19T04:09:56;100151.27;;;17.52;78.05
73624;BME280;61921;53.226;-1.296;2022-08-19T04:12:22;100152.18;;;17.50;77.56
73624;BME280;61921;53.226;-1.296;2022-08-19T04:14:47;100147.95;;;17.12;77.84
73624;BME280;61921;53.226;-1.296;2022-08-19T04:17:12;100145.45;;;17.07;78.44
73624;BME280;61921;53.226;-1.296;2022-08-19T04:19:37;100144.67;;;17.06;78.30
73624;BME280;61921;53.226;-1.296;2022-08-19T04:22:03;100148.34;;;16.59;79.93
73624;BME280;61921;53.226;-1.296;2022-08-19T04:24:28;100149.67;;;16.64;80.33
73624;BME280;61921;53.226;-1.296;2022-08-19T04:26:53;100152.06;;;16.71;79.80
73624;BME280;61921;53.226;-1.296;2022-08-19T04:29:21;100150.63;;;16.55;80.29
73624;BME280;61921;53.226;-1.296;2022-08-19T04:31:45;100156.76;;;16.57;80.19
73624;BME280;61921;53.226;-1.296;2022-08-19T04:34:13;100163.87;;;16.57;79.86
73624;BME280;61921;53.226;-1.296;2022-08-19T04:36:36;100168.64;;;16.32;80.69
73624;BME280;61921;53.226;-1.296;2022-08-19T04:39:03;100169.43;;;16.31;80.36
73624;BME280;61921;53.226;-1.296;2022-08-19T04:41:26;100170.67;;;16.32;80.22
73624;BME280;61921;53.226;-1.296;2022-08-19T04:43:51;100170.79;;;16.28;79.93
73624;BME280;61921;53.226;-1.296;2022-08-19T04:46:16;100179.54;;;16.10;80.73
73624;BME280;61921;53.226;-1.296;2022-08-19T04:48:42;100186.83;;;15.79;81.72
73624;BME280;61921;53.226;-1.296;2022-08-19T04:51:10;100189.21;;;15.83;81.97
73624;BME280;61921;53.226;-1.296;2022-08-19T04:53:35;100191.96;;;15.97;81.57
73624;BME280;61921;53.226;-1.296;2022-08-19T04:55:59;100195.05;;;16.01;80.88
73624;BME280;61921;53.226;-1.296;2022-08-19T04:58:24;100201.61;;;16.06;80.66
73624;BME280;61921;53.226;-1.296;2022-08-19T05:00:49;100201.65;;;16.07;80.46
73624;BME280;61921;53.226;-1.296;2022-08-19T05:03:14;100199.48;;;16.05;80.31
73624;BME280;61921;53.226;-1.296;2022-08-19T05:05:40;100198.71;;;16.08;80.04
73624;BME280;61921;53.226;-1.296;2022-08-19T05:08:04;100200.66;;;16.05;80.15
73624;BME280;61921;53.226;-1.296;2022-08-19T05:10:30;100204.87;;;15.85;80.91
73624;BME280;61921;53.226;-1.296;2022-08-19T05:12:55;100209.87;;;15.80;80.82
73624;BME280;61921;53.226;-1.296;2022-08-19T05:15:20;100207.82;;;15.83;80.24
73624;BME280;61921;53.226;-1.296;2022-08-19T05:17:46;100206.82;;;15.82;80.43
73624;BME280;61921;53.226;-1.296;2022-08-19T05:20:11;100216.23;;;15.65;80.73
73624;BME280;61921;53.226;-1.296;2022-08-19T05:22:37;100223.02;;;15.37;81.27
73624;BME280;61921;53.226;-1.296;2022-08-19T05:25:06;100225.58;;;15.52;81.31
73624;BME280;61921;53.226;-1.296;2022-08-19T05:27:28;100231.53;;;15.62;80.37
73624;BME280;61921;53.226;-1.296;2022-08-19T05:29:53;100236.56;;;15.59;80.25
73624;BME280;61921;53.226;-1.296;2022-08-19T05:32:18;100239.29;;;15.65;80.23
73624;BME280;61921;53.226;-1.296;2022-08-19T05:34:44;100237.55;;;15.66;79.75
73624;BME280;61921;53.226;-1.296;2022-08-19T05:37:10;100233.27;;;15.67;79.61
73624;BME280;61921;53.226;-1.296;2022-08-19T05:39:36;100236.09;;;15.72;79.52
73624;BME280;61921;53.226;-1.296;2022-08-19T05:42:02;100241.21;;;15.69;79.58
73624;BME280;61921;53.226;-1.296;2022-08-19T05:44:26;100242.98;;;15.65;79.68
73624;BME280;61921;53.226;-1.296;2022-08-19T05:46:51;100244.04;;;15.68;79.31
73624;BME280;61921;53.226;-1.296;2022-08-19T05:49:17;100244.49;;;15.71;79.37
73624;BME280;61921;53.226;-1.296;2022-08-19T05:51:42;100240.62;;;15.71;79.04
73624;BME280;61921;53.226;-1.296;2022-08-19T05:54:07;100235.84;;;15.60;79.42
73624;BME280;61921;53.226;-1.296;2022-08-19T05:56:33;100236.77;;;15.34;80.23
73624;BME280;61921;53.226;-1.296;2022-08-19T05:58:58;100240.88;;;15.24;79.32
73624;BME280;61921;53.226;-1.296;2022-08-19T06:01:23;100238.45;;;15.14;80.93
73624;BME280;61921;53.226;-1.296;2022-08-19T06:03:48;100241.32;;;15.26;80.26
73624;BME280;61921;53.226;-1.296;2022-08-19T06:06:15;100247.58;;;15.20;80.07
73624;BME280;61921;53.226;-1.296;2022-08-19T06:08:39;100246.62;;;15.43;79.36
73624;BME280;61921;53.226;-1.296;2022-08-19T06:11:14;100251.54;;;15.36;79.22
73624;BME280;61921;53.226;-1.296;2022-08-19T06:13:29;100254.59;;;15.37;79.53
73624;BME280;61921;53.226;-1.296;2022-08-19T06:15:55;100257.72;;;15.32;78.87
73624;BME280;61921;53.226;-1.296;2022-08-19T06:18:21;100259.19;;;15.31;79.04
73624;BME280;61921;53.226;-1.296;2022-08-19T06:20:46;100260.20;;;15.43;79.15
73624;BME280;61921;53.226;-1.296;2022-08-19T06:23:12;100261.35;;;15.16;80.48
73624;BME280;61921;53.226;-1.296;2022-08-19T06:25:39;100258.14;;;15.35;79.07
73624;BME280;61921;53.226;-1.296;2022-08-19T06:28:03;100253.41;;;15.31;77.80
73624;BME280;61921;53.226;-1.296;2022-08-19T06:30:29;100258.41;;;15.48;78.19
73624;BME280;61921;53.226;-1.296;2022-08-19T06:32:54;100258.87;;;15.37;77.64
73624;BME280;61921;53.226;-1.296;2022-08-19T06:35:19;100265.44;;;15.47;78.05
73624;BME280;61921;53.226;-1.296;2022-08-19T06:37:45;100266.49;;;15.50;77.64
73624;BME280;61921;53.226;-1.296;2022-08-19T06:40:11;100264.93;;;15.56;77.27
73624;BME280;61921;53.226;-1.296;2022-08-19T06:42:36;100263.88;;;15.58;76.83
73624;BME280;61921;53.226;-1.296;2022-08-19T06:45:02;100262.09;;;15.64;78.45
73624;BME280;61921;53.226;-1.296;2022-08-19T06:47:27;100262.16;;;15.72;76.66
73624;BME280;61921;53.226;-1.296;2022-08-19T06:49:53;100262.52;;;15.73;76.29
73624;BME280;61921;53.226;-1.296;2022-08-19T06:52:17;100265.63;;;15.71;77.51
73624;BME280;61921;53.226;-1.296;2022-08-19T06:54:43;100274.83;;;15.95;76.36
73624;BME280;61921;53.226;-1.296;2022-08-19T06:57:08;100278.99;;;15.92;75.50
73624;BME280;61921;53.226;-1.296;2022-08-19T06:59:35;100285.99;;;16.07;75.71
73624;BME280;61921;53.226;-1.296;2022-08-19T07:02:03;100284.96;;;16.11;75.19
73624;BME280;61921;53.226;-1.296;2022-08-19T07:04:27;100289.73;;;16.14;74.81
73624;BME280;61921;53.226;-1.296;2022-08-19T07:06:57;100286.31;;;16.14;73.38
73624;BME280;61921;53.226;-1.296;2022-08-19T07:09:18;100283.30;;;16.30;72.41
73624;BME280;61921;53.226;-1.296;2022-08-19T07:11:44;100281.63;;;16.27;72.47
73624;BME280;61921;53.226;-1.296;2022-08-19T07:14:08;100282.80;;;16.29;72.38
73624;BME280;61921;53.226;-1.296;2022-08-19T07:16:34;100287.67;;;16.42;72.50
73624;BME280;61921;53.226;-1.296;2022-08-19T07:18:58;100289.01;;;16.43;71.50
73624;BME280;61921;53.226;-1.296;2022-08-19T07:21:26;100289.94;;;16.42;70.14
73624;BME280;61921;53.226;-1.296;2022-08-19T07:23:49;100291.08;;;16.43;70.92
73624;BME280;61921;53.226;-1.296;2022-08-19T07:26:17;100293.84;;;16.54;71.35
73624;BME280;61921;53.226;-1.296;2022-08-19T07:28:40;100294.60;;;16.56;71.53
73624;BME280;61921;53.226;-1.296;2022-08-19T07:31:05;100294.00;;;16.80;70.92
73624;BME280;61921;53.226;-1.296;2022-08-19T07:33:30;100291.10;;;16.81;70.05
73624;BME280;61921;53.226;-1.296;2022-08-19T07:35:55;100288.80;;;16.77;68.41
73624;BME280;61921;53.226;-1.296;2022-08-19T07:38:21;100288.68;;;16.93;69.70
73624;BME280;61921;53.226;-1.296;2022-08-19T07:40:46;100289.15;;;16.97;68.68
73624;BME280;61921;53.226;-1.296;2022-08-19T07:43:11;100293.00;;;17.07;68.86
73624;BME280;61921;53.226;-1.296;2022-08-19T07:45:36;100304.54;;;16.96;66.69
73624;BME280;61921;53.226;-1.296;2022-08-19T07:48:02;100309.77;;;16.89;67.33
73624;BME280;61921;53.226;-1.296;2022-08-19T07:50:27;100313.18;;;16.97;66.66
73624;BME280;61921;53.226;-1.296;2022-08-19T07:52:52;100312.51;;;17.22;66.66
73624;BME280;61921;53.226;-1.296;2022-08-19T07:55:23;100309.13;;;17.61;65.79
73624;BME280;61921;53.226;-1.296;2022-08-19T07:57:43;100307.98;;;17.98;62.88
73624;BME280;61921;53.226;-1.296;2022-08-19T08:00:09;100312.37;;;18.40;63.41
73624;BME280;61921;53.226;-1.296;2022-08-19T08:02:34;100313.07;;;18.63;63.04
73624;BME280;61921;53.226;-1.296;2022-08-19T08:04:59;100320.12;;;18.71;61.99
73624;BME280;61921;53.226;-1.296;2022-08-19T08:07:25;100322.95;;;18.73;60.71
73624;BME280;61921;53.226;-1.296;2022-08-19T08:09:50;100322.36;;;19.41;58.75
73624;BME280;61921;53.226;-1.296;2022-08-19T08:12:18;100331.70;;;19.89;57.69
73624;BME280;61921;53.226;-1.296;2022-08-19T08:14:42;100328.27;;;20.16;56.27
73624;BME280;61921;53.226;-1.296;2022-08-19T08:17:06;100332.43;;;20.57;54.92
73624;BME280;61921;53.226;-1.296;2022-08-19T08:19:31;100331.61;;;20.49;54.66
73624;BME280;61921;53.226;-1.296;2022-08-19T08:21:57;100328.64;;;20.18;53.88
73624;BME280;61921;53.226;-1.296;2022-08-19T08:24:21;100330.31;;;20.01;55.11
73624;BME280;61921;53.226;-1.296;2022-08-19T08:26:46;100330.38;;;20.02;53.96
73624;BME280;61921;53.226;-1.296;2022-08-19T08:29:12;100328.32;;;20.00;55.19
73624;BME280;61921;53.226;-1.296;2022-08-19T08:31:38;100335.02;;;20.10;54.27
73624;BME280;61921;53.226;-1.296;2022-08-19T08:34:02;100339.15;;;20.77;52.08
73624;BME280;61921;53.226;-1.296;2022-08-19T08:36:27;100338.46;;;20.91;51.08
73624;BME280;61921;53.226;-1.296;2022-08-19T08:38:52;100337.91;;;20.61;52.22
73624;BME280;61921;53.226;-1.296;2022-08-19T08:41:25;100338.01;;;20.84;51.80
73624;BME280;61921;53.226;-1.296;2022-08-19T08:43:45;100330.96;;;21.32;50.61
73624;BME280;61921;53.226;-1.296;2022-08-19T08:46:10;100322.41;;;21.42;50.38
73624;BME280;61921;53.226;-1.296;2022-08-19T08:48:39;100324.68;;;20.94;49.26
73624;BME280;61921;53.226;-1.296;2022-08-19T08:50:59;100325.80;;;21.19;50.64
73624;BME280;61921;53.226;-1.296;2022-08-19T08:53:24;100325.82;;;21.17;49.39
73624;BME280;61921;53.226;-1.296;2022-08-19T08:55:48;100320.95;;;20.85;50.11
73624;BME280;61921;53.226;-1.296;2022-08-19T08:58:21;100322.93;;;20.79;51.06
73624;BME280;61921;53.226;-1.296;2022-08-19T09:00:43;100321.33;;;21.07;49.53
73624;BME280;61921;53.226;-1.296;2022-08-19T09:03:09;100321.56;;;21.40;47.02
73624;BME280;61921;53.226;-1.296;2022-08-19T09:05:38;100322.11;;;21.96;47.41
73624;BME280;61921;53.226;-1.296;2022-08-19T09:07:59;100323.91;;;22.33;44.91
73624;BME280;61921;53.226;-1.296;2022-08-19T09:10:29;100321.45;;;22.68;44.10
73624;BME280;61921;53.226;-1.296;2022-08-19T09:12:52;100327.33;;;22.40;44.29
73624;BME280;61921;53.226;-1.296;2022-08-19T09:15:12;100328.07;;;22.15;44.19
73624;BME280;61921;53.226;-1.296;2022-08-19T09:17:36;100334.44;;;22.12;43.41
73624;BME280;61921;53.226;-1.296;2022-08-19T09:20:12;100336.64;;;21.91;45.36
73624;BME280;61921;53.226;-1.296;2022-08-19T09:22:25;100335.63;;;22.11;44.72
73624;BME280;61921;53.226;-1.296;2022-08-19T09:24:51;100334.59;;;21.86;44.01
73624;BME280;61921;53.226;-1.296;2022-08-19T09:27:15;100337.28;;;21.98;44.94
73624;BME280;61921;53.226;-1.296;2022-08-19T09:29:40;100333.43;;;22.01;43.77
73624;BME280;61921;53.226;-1.296;2022-08-19T09:32:06;100333.28;;;22.64;42.33
73624;BME280;61921;53.226;-1.296;2022-08-19T09:34:32;100338.94;;;23.05;42.32
73624;BME280;61921;53.226;-1.296;2022-08-19T09:36:55;100330.76;;;23.24;41.81
73624;BME280;61921;53.226;-1.296;2022-08-19T09:39:21;100333.56;;;23.35;42.93
73624;BME280;61921;53.226;-1.296;2022-08-19T09:41:46;100331.09;;;23.70;40.95
73624;BME280;61921;53.226;-1.296;2022-08-19T09:44:11;100333.50;;;23.43;41.43
73624;BME280;61921;53.226;-1.296;2022-08-19T09:46:36;100338.94;;;23.30;42.77
73624;BME280;61921;53.226;-1.296;2022-08-19T09:49:01;100342.53;;;22.67;42.92
73624;BME280;61921;53.226;-1.296;2022-08-19T09:51:27;100340.84;;;22.83;42.30
73624;BME280;61921;53.226;-1.296;2022-08-19T09:53:52;100344.95;;;22.50;43.60
73624;BME280;61921;53.226;-1.296;2022-08-19T09:56:18;100343.93;;;21.99;44.32
73624;BME280;61921;53.226;-1.296;2022-08-19T09:58:41;100340.92;;;21.55;44.48
73624;BME280;61921;53.226;-1.296;2022-08-19T10:01:07;100340.57;;;21.72;44.51
73624;BME280;61921;53.226;-1.296;2022-08-19T10:03:33;100344.68;;;21.43;44.89
73624;BME280;61921;53.226;-1.296;2022-08-19T10:05:58;100346.43;;;21.16;44.23
73624;BME280;61921;53.226;-1.296;2022-08-19T10:08:23;100352.36;;;20.77;45.65
73624;BME280;61921;53.226;-1.296;2022-08-19T10:10:47;100354.02;;;21.07;46.61
73624;BME280;61921;53.226;-1.296;2022-08-19T10:13:13;100353.40;;;20.99;44.59
73624;BME280;61921;53.226;-1.296;2022-08-19T10:15:37;100347.53;;;21.22;44.63
73624;BME280;61921;53.226;-1.296;2022-08-19T10:18:02;100339.93;;;21.49;44.70
73624;BME280;61921;53.226;-1.296;2022-08-19T10:20:27;100341.96;;;21.02;45.77
73624;BME280;61921;53.226;-1.296;2022-08-19T10:22:52;100347.15;;;20.76;46.99
73624;BME280;61921;53.226;-1.296;2022-08-19T10:25:17;100350.71;;;20.54;47.17
73624;BME280;61921;53.226;-1.296;2022-08-19T10:27:42;100353.72;;;20.90;48.12
73624;BME280;61921;53.226;-1.296;2022-08-19T10:30:10;100358.98;;;20.83;46.32
73624;BME280;61921;53.226;-1.296;2022-08-19T10:32:32;100356.49;;;20.77;46.62
73624;BME280;61921;53.226;-1.296;2022-08-19T10:34:57;100359.49;;;20.46;47.92
73624;BME280;61921;53.226;-1.296;2022-08-19T10:37:23;100352.18;;;20.36;47.78
73624;BME280;61921;53.226;-1.296;2022-08-19T10:39:48;100347.20;;;20.58;48.06
73624;BME280;61921;53.226;-1.296;2022-08-19T10:42:14;100346.54;;;21.19;46.23
73624;BME280;61921;53.226;-1.296;2022-08-19T10:44:38;100340.60;;;21.45;44.87
73624;BME280;61921;53.226;-1.296;2022-08-19T10:47:03;100335.35;;;21.67;43.64
73624;BME280;61921;53.226;-1.296;2022-08-19T10:49:28;100342.48;;;22.11;43.24
73624;BME280;61921;53.226;-1.296;2022-08-19T10:51:54;100345.10;;;22.60;43.25
73624;BME280;61921;53.226;-1.296;2022-08-19T10:54:19;100347.90;;;22.79;41.98
73624;BME280;61921;53.226;-1.296;2022-08-19T10:56:44;100348.30;;;22.96;42.56
73624;BME280;61921;53.226;-1.296;2022-08-19T10:59:09;100350.33;;;22.51;40.03
73624;BME280;61921;53.226;-1.296;2022-08-19T11:01:34;100347.13;;;22.68;40.99
73624;BME280;61921;53.226;-1.296;2022-08-19T11:04:00;100349.01;;;21.99;42.47
73624;BME280;61921;53.226;-1.296;2022-08-19T11:06:24;100346.40;;;22.14;41.93
73624;BME280;61921;53.226;-1.296;2022-08-19T11:08:49;100337.61;;;22.16;42.59
73624;BME280;61921;53.226;-1.296;2022-08-19T11:11:14;100331.16;;;21.70;42.44
73624;BME280;61921;53.226;-1.296;2022-08-19T11:13:40;100332.29;;;21.51;44.08
73624;BME280;61921;53.226;-1.296;2022-08-19T11:16:07;100341.06;;;21.19;44.87
73624;BME280;61921;53.226;-1.296;2022-08-19T11:18:29;100339.88;;;21.23;45.28
73624;BME280;61921;53.226;-1.296;2022-08-19T11:20:54;100338.05;;;21.51;44.68
73624;BME280;61921;53.226;-1.296;2022-08-19T11:23:19;100341.97;;;21.57;44.93
73624;BME280;61921;53.226;-1.296;2022-08-19T11:25:45;100347.05;;;21.13;44.64
73624;BME280;61921;53.226;-1.296;2022-08-19T11:28:10;100348.93;;;21.24;45.00
73624;BME280;61921;53.226;-1.296;2022-08-19T11:30:37;100341.93;;;21.81;43.06
73624;BME280;61921;53.226;-1.296;2022-08-19T11:33:00;100342.82;;;21.70;43.33
73624;BME280;61921;53.226;-1.296;2022-08-19T11:35:25;100344.55;;;21.68;43.96
73624;BME280;61921;53.226;-1.296;2022-08-19T11:37:50;100338.35;;;21.51;44.53
73624;BME280;61921;53.226;-1.296;2022-08-19T11:40:15;100341.48;;;21.82;45.15
73624;BME280;61921;53.226;-1.296;2022-08-19T11:42:40;100341.41;;;21.82;44.04
73624;BME280;61921;53.226;-1.296;2022-08-19T11:45:06;100331.53;;;21.49;42.29
73624;BME280;61921;53.226;-1.296;2022-08-19T11:47:30;100330.41;;;21.95;41.42
73624;BME280;61921;53.226;-1.296;2022-08-19T11:49:55;100324.38;;;22.59;40.98
73624;BME280;61921;53.226;-1.296;2022-08-19T11:52:20;100326.47;;;22.84;40.69
73624;BME280;61921;53.226;-1.296;2022-08-19T11:54:46;100325.63;;;22.55;40.63
73624;BME280;61921;53.226;-1.296;2022-08-19T11:57:11;100327.16;;;22.59;40.62
73624;BME280;61921;53.226;-1.296;2022-08-19T11:59:36;100327.66;;;23.17;39.80
73624;BME280;61921;53.226;-1.296;2022-08-19T12:02:01;100328.05;;;23.24;39.58
73624;BME280;61921;53.226;-1.296;2022-08-19T12:04:26;100329.94;;;23.48;39.54
73624;BME280;61921;53.226;-1.296;2022-08-19T12:06:51;100325.00;;;23.57;37.64
73624;BME280;61921;53.226;-1.296;2022-08-19T12:09:16;100325.18;;;23.70;37.41
73624;BME280;61921;53.226;-1.296;2022-08-19T12:11:41;100327.26;;;24.10;37.21
73624;BME280;61921;53.226;-1.296;2022-08-19T12:14:10;100330.74;;;24.26;36.27
73624;BME280;61921;53.226;-1.296;2022-08-19T12:16:33;100338.15;;;23.70;37.82
73624;BME280;61921;53.226;-1.296;2022-08-19T12:18:57;100343.74;;;23.20;37.46
73624;BME280;61921;53.226;-1.296;2022-08-19T12:21:24;100346.04;;;23.29;38.75
73624;BME280;61921;53.226;-1.296;2022-08-19T12:23:49;100343.24;;;23.31;38.84
73624;BME280;61921;53.226;-1.296;2022-08-19T12:26:12;100335.71;;;23.56;39.20
73624;BME280;61921;53.226;-1.296;2022-08-19T12:28:38;100337.69;;;24.08;37.45